createdAt,value
2019-05-07T00:03:26.392Z,76.49
2019-05-07T00:08:20.363Z,76.45
2019-05-07T00:13:14.374Z,76.21
2019-05-07T00:18:08.329Z,75.66
2019-05-07T00:23:03.080Z,75.67
2019-05-07T00:27:57.284Z,75.58
2019-05-07T00:32:53.071Z,75.94
2019-05-07T00:37:49.143Z,76.12
2019-05-07T00:42:47.758Z,76.54
2019-05-07T00:47:42.623Z,76.42
2019-05-07T00:52:36.797Z,77.18
2019-05-07T00:57:32.360Z,76.97
2019-05-07T01:02:26.657Z,77.37
2019-05-07T01:07:22.708Z,77.50
2019-05-07T01:12:16.472Z,77.38
2019-05-07T01:17:10.458Z,77.05
2019-05-07T01:22:04.513Z,76.75
2019-05-07T01:26:58.482Z,77.16
2019-05-07T01:32:00.385Z,77.28
2019-05-07T01:36:54.375Z,76.78
2019-05-07T01:41:48.343Z,76.86
2019-05-07T01:46:42.341Z,76.68
2019-05-07T01:51:36.289Z,77.18
2019-05-07T01:56:30.253Z,77.02
2019-05-07T02:01:24.407Z,77.13
2019-05-07T02:06:26.227Z,77.04
2019-05-07T02:11:34.797Z,76.92
2019-05-07T02:16:28.759Z,77.49
2019-05-07T02:21:22.722Z,77.21
2019-05-07T02:26:16.780Z,77.06
2019-05-07T02:31:14.663Z,77.44
2019-05-07T02:36:06.604Z,76.66
2019-05-07T02:41:03.011Z,77.33
2019-05-07T02:46:17.504Z,77.61
2019-05-07T02:50:56.866Z,77.38
2019-05-07T02:55:53.010Z,77.18
2019-05-07T03:00:47.294Z,76.82
2019-05-07T03:05:43.095Z,76.77
2019-05-07T03:10:37.210Z,77.53
2019-05-07T03:15:33.140Z,77.42
2019-05-07T03:20:35.250Z,76.86
2019-05-07T03:25:34.047Z,77.11
2019-05-07T03:30:35.970Z,77.37
2019-05-07T03:35:36.398Z,77.95
2019-05-07T03:40:27.158Z,78.55
2019-05-07T03:45:26.081Z,78.85
2019-05-07T03:50:23.106Z,78.66
2019-05-07T03:55:16.014Z,78.72
2019-05-07T04:00:13.092Z,78.63
2019-05-07T04:05:07.031Z,78.46
2019-05-07T04:10:04.468Z,78.41
2019-05-07T04:14:58.657Z,77.97
2019-05-07T04:19:53.271Z,77.89
2019-05-07T04:24:49.277Z,77.80
2019-05-07T04:29:43.236Z,77.85
2019-05-07T04:34:53.175Z,78.19
2019-05-07T04:39:53.945Z,78.04
2019-05-07T04:44:48.108Z,78.20
2019-05-07T04:49:43.639Z,78.20
2019-05-07T04:54:37.741Z,78.37
2019-05-07T04:59:32.978Z,78.20
2019-05-07T05:04:34.022Z,78.21
2019-05-07T05:09:23.479Z,77.52
2019-05-07T05:14:17.572Z,77.07
2019-05-07T05:19:12.596Z,76.25
2019-05-07T05:24:17.668Z,75.17
2019-05-07T05:29:12.180Z,74.08
2019-05-07T05:34:06.292Z,73.54
2019-05-07T05:39:02.554Z,73.12
2019-05-07T05:44:02.420Z,72.93
2019-05-07T05:48:56.555Z,72.95
2019-05-07T05:53:52.559Z,72.75
2019-05-07T05:59:02.795Z,72.62
2019-05-07T06:04:02.959Z,72.17
2019-05-07T06:09:12.334Z,71.93
2019-05-07T06:14:08.386Z,71.72
2019-05-07T06:19:04.776Z,71.75
2019-05-07T06:24:02.230Z,70.52
2019-05-07T06:28:56.299Z,70.32
2019-05-07T06:33:52.245Z,70.52
2019-05-07T06:38:53.123Z,69.95
2019-05-07T06:43:54.897Z,68.82
2019-05-07T06:48:48.945Z,67.69
2019-05-07T06:53:42.938Z,67.57
2019-05-07T06:58:55.723Z,66.06
2019-05-07T07:03:54.371Z,63.47
2019-05-07T07:08:59.034Z,61.86
2019-05-07T07:13:53.101Z,61.23
2019-05-07T07:18:51.853Z,60.94
2019-05-07T07:23:43.101Z,59.93
2019-05-07T07:28:37.025Z,59.86
2019-05-07T07:33:32.889Z,59.56
2019-05-07T07:38:33.399Z,58.38
2019-05-07T07:43:27.463Z,57.14
2019-05-07T07:48:24.105Z,55.46
2019-05-07T07:53:17.296Z,55.22
2019-05-07T07:58:13.170Z,55.01
2019-05-07T08:03:09.109Z,53.63
2019-05-07T08:08:03.178Z,53.08
2019-05-07T08:12:57.246Z,49.95
2019-05-07T08:17:52.198Z,49.44
2019-05-07T08:22:46.519Z,47.85
2019-05-07T08:27:41.980Z,47.45
2019-05-07T08:32:43.992Z,45.75
2019-05-07T08:37:38.097Z,48.70
2019-05-07T08:42:32.178Z,48.96
2019-05-07T08:47:33.832Z,47.75
2019-05-07T08:52:27.915Z,47.47
2019-05-07T08:57:22.764Z,49.43
2019-05-07T09:02:17.104Z,50.57
2019-05-07T09:07:13.028Z,51.40
2019-05-07T09:12:07.034Z,52.77
2019-05-07T09:17:02.454Z,54.47
2019-05-07T09:21:56.876Z,56.97
2019-05-07T09:26:55.722Z,58.76
2019-05-07T09:31:52.551Z,59.34
2019-05-07T09:36:48.711Z,57.73
2019-05-07T09:41:42.671Z,57.96
2019-05-07T09:46:36.743Z,57.54
2019-05-07T09:51:32.167Z,55.64
2019-05-07T09:56:26.498Z,56.41
2019-05-07T10:01:20.772Z,54.75
2019-05-07T10:06:14.860Z,52.80
2019-05-07T10:11:12.132Z,53.00
2019-05-07T10:16:07.800Z,52.94
2019-05-07T10:21:02.602Z,50.03
2019-05-07T10:25:56.744Z,48.36
2019-05-07T10:30:52.174Z,46.61
2019-05-07T10:35:46.385Z,45.90
2019-05-07T10:40:40.398Z,42.85
2019-05-07T10:45:39.023Z,39.72
2019-05-07T10:50:39.129Z,38.21
2019-05-07T10:55:32.765Z,37.10
2019-05-07T11:00:27.347Z,36.98
2019-05-07T11:05:22.032Z,35.71
2019-05-07T11:10:16.279Z,36.79
2019-05-07T11:15:12.424Z,38.13
2019-05-07T11:20:07.388Z,41.64
2019-05-07T11:25:03.148Z,41.09
2019-05-07T11:29:57.358Z,41.68
2019-05-07T11:34:52.808Z,41.41
2019-05-07T11:39:47.329Z,41.26
2019-05-07T11:44:42.383Z,40.86
2019-05-07T11:49:53.529Z,39.43
2019-05-07T11:54:47.498Z,37.79
2019-05-07T11:59:41.881Z,35.72
2019-05-07T12:04:35.879Z,34.39
2019-05-07T12:09:29.856Z,33.38
2019-05-07T12:14:30.961Z,30.62
2019-05-07T12:19:19.748Z,27.74
2019-05-07T12:24:16.367Z,29.58
2019-05-07T12:29:11.659Z,33.96
2019-05-07T12:34:07.522Z,37.55
2019-05-07T12:39:02.254Z,38.07
2019-05-07T12:43:57.675Z,40.16
2019-05-07T12:48:52.397Z,40.27
2019-05-07T12:53:52.482Z,39.64
2019-05-07T12:58:46.618Z,37.50
2019-05-07T13:03:42.867Z,35.55
2019-05-07T13:08:36.917Z,32.16
2019-05-07T13:13:32.036Z,27.73
2019-05-07T13:18:26.107Z,27.73
2019-05-07T13:23:22.337Z,21.15
2019-05-07T13:28:15.991Z,14.54
2019-05-07T13:33:12.177Z,16.72
2019-05-07T13:38:07.962Z,20.89
2019-05-07T13:43:11.747Z,25.02
2019-05-07T13:48:13.715Z,26.87
2019-05-07T13:53:07.921Z,27.60
2019-05-07T13:58:02.111Z,27.46
2019-05-07T14:02:56.555Z,25.10
2019-05-07T14:07:50.721Z,26.56
2019-05-07T14:12:44.758Z,28.04
2019-05-07T14:17:39.019Z,28.34
2019-05-07T14:22:33.415Z,27.97
2019-05-07T14:27:27.400Z,25.11
2019-05-07T14:32:38.637Z,24.72
2019-05-07T14:37:34.704Z,26.17
2019-05-07T14:42:32.701Z,27.35
2019-05-07T14:47:26.535Z,29.98
2019-05-07T14:52:30.303Z,30.18
2019-05-07T14:57:16.771Z,30.70
2019-05-07T15:02:12.082Z,27.17
2019-05-07T15:07:06.525Z,28.29
2019-05-07T15:12:02.199Z,29.20
2019-05-07T15:16:58.116Z,29.61
2019-05-07T15:21:54.103Z,30.85
2019-05-07T15:26:50.080Z,30.86
2019-05-07T15:31:55.390Z,31.87
2019-05-07T15:36:49.470Z,29.04
2019-05-07T15:41:43.449Z,28.02
2019-05-07T15:46:37.576Z,29.75
2019-05-07T15:51:32.802Z,28.61
2019-05-07T15:56:26.818Z,31.26
2019-05-07T16:01:22.189Z,31.94
2019-05-07T16:06:16.425Z,31.42
2019-05-07T16:11:12.484Z,27.70
2019-05-07T16:16:06.639Z,29.80
2019-05-07T16:21:02.090Z,30.97
2019-05-07T16:25:56.519Z,32.07
2019-05-07T16:30:52.168Z,32.07
2019-05-07T16:35:46.272Z,32.22
2019-05-07T16:40:40.269Z,32.64
2019-05-07T16:45:34.250Z,33.90
2019-05-07T16:50:32.634Z,34.06
2019-05-07T16:55:36.912Z,34.37
2019-05-07T17:00:35.906Z,34.52
2019-05-07T17:05:31.948Z,35.16
2019-05-07T17:10:25.909Z,37.40
2019-05-07T17:15:22.832Z,36.38
2019-05-07T17:20:18.090Z,35.61
2019-05-07T17:25:14.212Z,36.94
2019-05-07T17:30:08.487Z,37.41
2019-05-07T17:35:03.372Z,37.58
2019-05-07T17:39:57.398Z,38.80
2019-05-07T17:44:51.863Z,39.89
2019-05-07T17:49:45.900Z,40.54
2019-05-07T17:54:42.235Z,41.96
2019-05-07T17:59:35.893Z,42.76
2019-05-07T18:04:32.570Z,42.41
2019-05-07T18:09:27.524Z,43.23
2019-05-07T18:14:22.785Z,44.67
2019-05-07T18:19:17.023Z,44.06
2019-05-07T18:24:14.294Z,43.61
2019-05-07T18:29:07.131Z,45.03
2019-05-07T18:34:02.705Z,46.37
2019-05-07T18:38:56.761Z,46.35
2019-05-07T18:43:54.373Z,46.57
2019-05-07T18:48:46.910Z,47.61
2019-05-07T18:53:42.486Z,47.88
2019-05-07T18:58:36.956Z,48.27
2019-05-07T19:03:32.532Z,48.31
2019-05-07T19:08:26.946Z,49.42
2019-05-07T19:13:22.157Z,50.52
2019-05-07T19:18:16.563Z,50.68
2019-05-07T19:23:10.807Z,51.16
2019-05-07T19:28:06.766Z,51.72
2019-05-07T19:33:00.848Z,52.29
2019-05-07T19:37:54.950Z,53.32
2019-05-07T19:42:49.174Z,53.77
2019-05-07T19:47:43.267Z,53.73
2019-05-07T19:52:37.481Z,54.19
2019-05-07T19:57:33.482Z,54.71
2019-05-07T20:02:29.612Z,55.21
2019-05-07T20:07:23.699Z,55.32
2019-05-07T20:12:17.734Z,55.25
2019-05-07T20:17:12.352Z,54.94
2019-05-07T20:22:06.573Z,54.48
2019-05-07T20:27:02.870Z,54.67
2019-05-07T20:31:56.606Z,55.56
2019-05-07T20:36:51.817Z,55.59
2019-05-07T20:41:45.932Z,56.19
2019-05-07T20:46:41.986Z,57.09
2019-05-07T20:51:35.905Z,56.34
2019-05-07T20:56:49.075Z,56.44
2019-05-07T21:01:43.150Z,56.74
2019-05-07T21:06:37.236Z,56.78
2019-05-07T21:11:32.347Z,57.07
2019-05-07T21:16:26.621Z,57.25
2019-05-07T21:21:21.826Z,57.19
2019-05-07T21:26:15.950Z,57.38
2019-05-07T21:31:11.856Z,56.98
2019-05-07T21:36:05.798Z,57.60
2019-05-07T21:40:59.820Z,57.59
2019-05-07T21:45:53.793Z,57.32
2019-05-07T21:50:47.816Z,57.13
2019-05-07T21:55:44.251Z,57.09
2019-05-07T22:00:56.794Z,56.75
2019-05-07T22:05:51.755Z,57.15
2019-05-07T22:10:46.817Z,56.82
2019-05-07T22:15:42.272Z,56.56
2019-05-07T22:20:36.461Z,56.05
2019-05-07T22:25:32.673Z,56.18
2019-05-07T22:30:28.341Z,57.22
2019-05-07T22:35:24.249Z,58.26
2019-05-07T22:40:18.340Z,58.81
2019-05-07T22:45:12.742Z,58.68
2019-05-07T22:50:06.729Z,58.60
2019-05-07T22:55:00.692Z,56.59
2019-05-07T22:59:54.658Z,55.62
2019-05-07T23:04:48.611Z,55.61
2019-05-07T23:09:44.889Z,55.12
2019-05-07T23:14:38.565Z,55.16
2019-05-07T23:19:32.813Z,55.39
2019-05-07T23:24:27.102Z,54.95
2019-05-07T23:29:22.436Z,54.66
2019-05-07T23:34:16.897Z,55.55
2019-05-07T23:39:12.765Z,55.21
2019-05-07T23:44:12.437Z,55.69
2019-05-07T23:49:06.740Z,55.92
2019-05-07T23:54:02.799Z,56.46
2019-05-07T23:58:56.723Z,57.02
